createdAt,value
2017-12-31T00:00:51.101Z,8.27
2017-12-31T00:03:19.981Z,9.07
2017-12-31T00:05:49.175Z,8.13
2017-12-31T00:08:19.026Z,7.50
2017-12-31T00:10:48.038Z,7.47
2017-12-31T00:13:18.204Z,7.10
2017-12-31T00:15:48.020Z,7.63
2017-12-31T00:18:18.465Z,7.82
2017-12-31T00:20:49.229Z,8.13
2017-12-31T00:23:18.202Z,7.27
2017-12-31T00:25:48.029Z,7.82
2017-12-31T00:28:17.008Z,8.93
2017-12-31T00:30:45.967Z,8.20
2017-12-31T00:33:15.871Z,7.80
2017-12-31T00:35:44.901Z,8.07
2017-12-31T00:38:14.106Z,7.47
2017-12-31T00:40:43.877Z,8.03
2017-12-31T00:43:12.817Z,7.60
2017-12-31T00:45:41.932Z,8.20
2017-12-31T00:48:12.604Z,7.80
2017-12-31T00:50:41.405Z,7.03
2017-12-31T00:53:10.252Z,8.53
2017-12-31T00:55:39.081Z,9.73
2017-12-31T00:58:07.895Z,9.77
2017-12-31T01:00:36.770Z,8.10
2017-12-31T01:03:05.770Z,7.73
2017-12-31T01:05:34.621Z,9.20
2017-12-31T01:08:03.570Z,10.20
2017-12-31T01:10:34.240Z,14.07
2017-12-31T01:13:03.103Z,8.93
2017-12-31T01:15:32.088Z,7.60
2017-12-31T01:18:03.738Z,7.20
2017-12-31T01:20:32.873Z,6.50
2017-12-31T01:23:01.823Z,7.53
2017-12-31T01:25:31.144Z,7.20
2017-12-31T01:28:01.149Z,7.30
2017-12-31T01:30:30.994Z,7.50
2017-12-31T01:33:00.659Z,7.23
2017-12-31T01:35:29.688Z,7.40
2017-12-31T01:37:58.807Z,7.70
2017-12-31T01:40:28.017Z,7.40
2017-12-31T01:42:56.981Z,7.10
2017-12-31T01:45:25.797Z,7.33
2017-12-31T01:47:56.500Z,7.23
2017-12-31T01:50:25.771Z,7.27
2017-12-31T01:52:54.583Z,6.70
2017-12-31T01:55:23.453Z,6.80
2017-12-31T01:57:52.406Z,7.50
2017-12-31T02:00:21.211Z,7.33
2017-12-31T02:02:50.214Z,6.80
2017-12-31T02:05:18.990Z,7.23
2017-12-31T02:07:47.845Z,6.33
2017-12-31T02:10:16.944Z,7.83
2017-12-31T02:12:45.777Z,6.90
2017-12-31T02:15:14.740Z,6.90
2017-12-31T02:17:43.664Z,6.73
2017-12-31T02:20:12.567Z,7.50
2017-12-31T02:22:41.490Z,6.83
2017-12-31T02:25:12.123Z,7.27
2017-12-31T02:27:41.088Z,7.50
2017-12-31T02:30:09.878Z,7.87
2017-12-31T02:32:38.832Z,9.37
2017-12-31T02:35:07.855Z,8.40
2017-12-31T02:37:36.716Z,8.97
2017-12-31T02:40:05.596Z,9.13
2017-12-31T02:42:34.412Z,8.80
2017-12-31T02:45:03.408Z,8.40
2017-12-31T02:47:34.014Z,10.07
2017-12-31T02:50:02.942Z,8.03
2017-12-31T02:52:31.897Z,8.87
2017-12-31T02:55:00.828Z,9.10
2017-12-31T02:57:29.666Z,8.67
2017-12-31T02:59:58.482Z,9.73
2017-12-31T03:02:27.351Z,9.40
2017-12-31T03:04:56.199Z,10.10
2017-12-31T03:07:25.126Z,8.67
2017-12-31T03:09:54.196Z,9.53
2017-12-31T03:12:23.159Z,9.40
2017-12-31T03:14:51.994Z,11.80
2017-12-31T03:17:20.879Z,10.80
2017-12-31T03:19:49.649Z,10.10
2017-12-31T03:22:18.671Z,11.43
2017-12-31T03:27:21.160Z,11.50
2017-12-31T03:29:50.254Z,12.57
2017-12-31T03:32:21.345Z,13.57
2017-12-31T03:34:50.193Z,14.30
2017-12-31T03:37:19.139Z,14.67
2017-12-31T03:39:49.738Z,16.67
2017-12-31T03:42:18.613Z,16.50
2017-12-31T03:44:47.677Z,17.03
2017-12-31T03:47:17.761Z,20.60
2017-12-31T03:49:46.762Z,20.63
2017-12-31T03:52:15.688Z,22.53
2017-12-31T03:54:44.706Z,22.80
2017-12-31T03:57:14.682Z,23.37
2017-12-31T03:59:43.479Z,23.50
2017-12-31T04:02:12.386Z,23.67
2017-12-31T04:04:41.178Z,22.37
2017-12-31T04:07:10.061Z,23.43
2017-12-31T04:09:38.922Z,21.83
2017-12-31T04:12:07.723Z,23.83
2017-12-31T04:14:36.674Z,22.73
2017-12-31T04:19:39.701Z,22.63
2017-12-31T04:22:08.603Z,24.07
2017-12-31T04:24:38.444Z,22.70
2017-12-31T04:27:07.344Z,21.80
2017-12-31T04:29:36.258Z,21.43
2017-12-31T04:32:05.153Z,22.57
2017-12-31T04:34:34.140Z,23.60
2017-12-31T04:37:02.968Z,23.30
2017-12-31T04:39:32.729Z,21.67
2017-12-31T04:42:01.677Z,22.37
2017-12-31T04:44:30.587Z,24.50
2017-12-31T04:46:59.499Z,20.70
2017-12-31T04:49:28.308Z,23.60
2017-12-31T04:51:57.254Z,24.97
2017-12-31T04:54:26.097Z,24.23
2017-12-31T04:56:54.878Z,24.90
2017-12-31T04:59:23.741Z,22.53
2017-12-31T05:04:26.716Z,26.43
2017-12-31T05:06:55.720Z,25.87
2017-12-31T05:09:24.820Z,24.63
2017-12-31T05:11:53.755Z,25.87
2017-12-31T05:14:22.784Z,26.00
2017-12-31T05:19:25.535Z,26.70
2017-12-31T05:21:54.294Z,29.33
2017-12-31T05:24:23.379Z,32.53
2017-12-31T05:26:53.108Z,28.77
2017-12-31T05:29:21.912Z,25.93
2017-12-31T05:31:51.031Z,27.47
2017-12-31T05:34:20.029Z,29.53
2017-12-31T05:36:48.923Z,26.50
2017-12-31T05:39:17.938Z,28.20
2017-12-31T05:41:46.886Z,27.30
2017-12-31T05:44:16.961Z,29.30
2017-12-31T05:46:46.811Z,28.57
2017-12-31T05:49:15.752Z,27.10
2017-12-31T05:51:44.642Z,27.10
2017-12-31T05:54:14.751Z,27.87
2017-12-31T05:56:43.541Z,25.97
2017-12-31T05:59:12.357Z,24.63
2017-12-31T06:01:43.837Z,25.83
2017-12-31T06:04:12.774Z,22.47
2017-12-31T06:06:41.689Z,21.30
2017-12-31T06:09:10.760Z,21.10
2017-12-31T06:11:39.645Z,20.73
2017-12-31T06:14:08.771Z,20.10
2017-12-31T06:16:37.733Z,23.17
2017-12-31T06:19:06.631Z,21.60
2017-12-31T06:21:36.387Z,21.60
2017-12-31T06:24:06.133Z,20.98
2017-12-31T06:26:35.041Z,22.02
2017-12-31T06:29:03.828Z,22.07
2017-12-31T06:31:33.522Z,21.20
2017-12-31T06:34:02.467Z,20.90
2017-12-31T06:36:31.292Z,20.65
2017-12-31T06:39:02.158Z,21.57
2017-12-31T06:41:32.117Z,22.43
2017-12-31T06:44:00.965Z,20.00
2017-12-31T06:46:32.766Z,21.27
2017-12-31T06:49:01.772Z,24.70
2017-12-31T06:51:31.124Z,19.80
2017-12-31T06:54:00.050Z,21.10
2017-12-31T06:56:28.899Z,19.83
2017-12-31T06:58:57.739Z,19.70
2017-12-31T07:01:28.547Z,19.13
2017-12-31T07:03:57.365Z,19.80
2017-12-31T07:06:26.339Z,22.23
2017-12-31T07:08:56.813Z,21.40
2017-12-31T07:11:25.760Z,20.77
2017-12-31T07:13:54.640Z,19.30
2017-12-31T07:16:23.558Z,18.90
2017-12-31T07:18:52.574Z,21.20
2017-12-31T07:21:21.852Z,21.00
2017-12-31T07:23:51.787Z,22.60
2017-12-31T07:26:20.728Z,22.40
2017-12-31T07:28:49.693Z,20.43
2017-12-31T07:31:20.456Z,21.13
2017-12-31T07:33:49.352Z,19.93
2017-12-31T07:36:18.239Z,20.93
2017-12-31T07:38:47.092Z,19.37
2017-12-31T07:41:15.952Z,21.30
2017-12-31T07:43:44.777Z,20.20
2017-12-31T07:46:15.468Z,22.97
2017-12-31T07:48:44.365Z,23.10
2017-12-31T07:51:13.153Z,19.85
2017-12-31T07:53:42.026Z,21.80
2017-12-31T07:56:10.955Z,21.80
2017-12-31T07:58:39.851Z,18.87
2017-12-31T08:01:09.573Z,19.47
2017-12-31T08:03:38.493Z,19.40
2017-12-31T08:06:07.339Z,17.50
2017-12-31T08:08:36.265Z,17.73
2017-12-31T08:11:05.104Z,17.40
2017-12-31T08:13:33.920Z,16.50
2017-12-31T08:16:04.434Z,16.33
2017-12-31T08:18:33.354Z,16.50
2017-12-31T08:21:02.203Z,18.12
2017-12-31T08:23:34.286Z,17.83
2017-12-31T08:26:03.310Z,14.60
2017-12-31T08:28:32.178Z,13.77
2017-12-31T08:31:02.334Z,15.10
2017-12-31T08:33:31.143Z,14.87
2017-12-31T08:36:00.030Z,13.73
2017-12-31T08:38:28.932Z,14.30
2017-12-31T08:40:57.793Z,13.67
2017-12-31T08:43:26.638Z,13.60
2017-12-31T08:45:55.594Z,14.10
2017-12-31T08:48:24.733Z,13.50
2017-12-31T08:50:53.757Z,11.60
2017-12-31T08:53:22.813Z,11.70
2017-12-31T08:55:52.380Z,12.13
2017-12-31T08:58:21.434Z,11.20
2017-12-31T09:00:50.374Z,12.40
2017-12-31T09:03:19.467Z,10.20
2017-12-31T09:05:48.367Z,10.27
2017-12-31T09:08:18.117Z,11.80
2017-12-31T09:10:46.983Z,10.63
2017-12-31T09:13:15.895Z,10.27
2017-12-31T09:15:48.513Z,10.67
2017-12-31T09:18:19.874Z,10.30
2017-12-31T09:20:52.137Z,9.60
2017-12-31T09:23:24.817Z,11.43
2017-12-31T09:25:58.300Z,9.73
2017-12-31T09:28:32.249Z,10.80
2017-12-31T09:31:03.976Z,11.57
2017-12-31T09:33:35.222Z,10.37
2017-12-31T09:38:43.146Z,10.40
2017-12-31T09:43:50.149Z,9.23
2017-12-31T09:46:21.124Z,10.57
2017-12-31T09:48:54.683Z,10.03
2017-12-31T09:51:23.549Z,9.80
2017-12-31T09:53:52.342Z,11.40
2017-12-31T09:56:26.164Z,10.90
2017-12-31T09:58:57.929Z,10.73
2017-12-31T10:01:32.417Z,10.23
2017-12-31T10:04:05.534Z,11.87
2017-12-31T10:09:10.796Z,8.87
2017-12-31T10:11:41.150Z,8.93
2017-12-31T10:14:13.557Z,8.90
2017-12-31T10:16:45.058Z,8.80
2017-12-31T10:21:53.089Z,8.73
2017-12-31T10:24:22.036Z,7.97
2017-12-31T10:26:51.935Z,9.47
2017-12-31T10:29:20.789Z,8.83
2017-12-31T10:31:49.616Z,7.70
2017-12-31T10:34:18.436Z,7.70
2017-12-31T10:36:47.268Z,7.20
2017-12-31T10:39:17.044Z,8.20
2017-12-31T10:41:49.354Z,6.50
2017-12-31T10:44:20.500Z,6.80
2017-12-31T10:46:50.115Z,7.40
2017-12-31T10:49:19.172Z,8.60
2017-12-31T10:51:48.019Z,7.47
2017-12-31T10:54:19.019Z,7.20
2017-12-31T10:56:58.094Z,6.00
2017-12-31T10:59:29.150Z,6.07
2017-12-31T11:02:00.562Z,5.33
2017-12-31T11:04:30.396Z,5.40
2017-12-31T11:07:00.289Z,5.90
2017-12-31T11:09:29.829Z,6.20
2017-12-31T11:11:59.910Z,5.80
2017-12-31T11:14:32.235Z,6.30
2017-12-31T11:17:02.624Z,6.10
2017-12-31T11:19:31.434Z,5.83
2017-12-31T11:22:00.353Z,6.40
2017-12-31T11:24:29.218Z,6.63
2017-12-31T11:26:58.175Z,5.90
2017-12-31T11:29:29.209Z,5.93
2017-12-31T11:31:58.178Z,5.37
2017-12-31T11:34:27.113Z,6.47
2017-12-31T11:39:30.673Z,5.37
2017-12-31T11:41:59.597Z,5.63
2017-12-31T11:44:28.932Z,5.17
2017-12-31T11:46:58.157Z,4.57
2017-12-31T11:49:27.278Z,5.37
2017-12-31T11:51:57.069Z,4.30
2017-12-31T11:54:27.216Z,4.40
2017-12-31T11:56:56.126Z,5.10
2017-12-31T11:59:25.123Z,5.37
2017-12-31T12:01:54.417Z,4.37
2017-12-31T12:04:23.918Z,5.23
2017-12-31T12:06:55.888Z,5.00
2017-12-31T12:09:26.895Z,5.00
2017-12-31T12:11:58.484Z,5.63
2017-12-31T12:14:27.615Z,5.67
2017-12-31T12:16:58.061Z,6.13
2017-12-31T12:19:27.770Z,6.30
2017-12-31T12:21:58.003Z,5.90
2017-12-31T12:24:27.751Z,7.07
2017-12-31T12:26:58.159Z,6.30
2017-12-31T12:29:27.553Z,5.67
2017-12-31T12:32:02.913Z,5.80
2017-12-31T12:34:33.195Z,5.90
2017-12-31T12:37:06.777Z,5.43
2017-12-31T12:39:37.225Z,5.90
2017-12-31T12:42:08.824Z,6.00
2017-12-31T12:44:39.995Z,5.90
2017-12-31T12:47:12.344Z,5.27
2017-12-31T12:49:44.308Z,4.93
2017-12-31T12:52:13.739Z,5.17
2017-12-31T12:54:43.481Z,5.20
2017-12-31T12:57:13.164Z,5.53
2017-12-31T12:59:44.830Z,4.80
2017-12-31T13:02:14.674Z,5.73
2017-12-31T13:04:46.789Z,5.17
2017-12-31T13:07:19.220Z,5.43
2017-12-31T13:09:48.797Z,7.10
2017-12-31T13:12:17.640Z,7.10
2017-12-31T13:14:46.815Z,7.13
2017-12-31T13:17:16.743Z,7.33
2017-12-31T13:19:45.806Z,6.47
2017-12-31T13:22:14.952Z,6.27
2017-12-31T13:24:44.149Z,8.23
2017-12-31T13:27:13.564Z,6.13
2017-12-31T13:29:42.640Z,5.53
2017-12-31T13:32:11.575Z,5.37
2017-12-31T13:34:40.671Z,6.40
2017-12-31T13:37:10.393Z,6.03
2017-12-31T13:39:41.028Z,4.47
2017-12-31T13:42:10.554Z,4.90
2017-12-31T13:44:40.480Z,5.93
2017-12-31T13:47:09.645Z,7.97
2017-12-31T13:49:38.719Z,6.20
2017-12-31T13:52:07.713Z,6.17
2017-12-31T13:54:36.613Z,5.80
2017-12-31T13:57:05.602Z,6.53
2017-12-31T13:59:34.917Z,6.30
2017-12-31T14:02:06.053Z,6.23
2017-12-31T14:04:35.163Z,8.93
2017-12-31T14:07:05.105Z,12.20
2017-12-31T14:09:35.198Z,11.40
2017-12-31T14:12:05.008Z,12.20
2017-12-31T14:14:35.224Z,8.83
2017-12-31T14:17:05.059Z,10.37
2017-12-31T14:19:35.463Z,10.37
2017-12-31T14:22:09.543Z,11.23
2017-12-31T14:24:39.509Z,12.70
2017-12-31T14:27:09.272Z,11.13
2017-12-31T14:32:14.861Z,9.43
2017-12-31T15:16:42.579Z,63.53
2017-12-31T15:19:11.641Z,47.70
2017-12-31T15:21:40.732Z,29.37
2017-12-31T15:24:10.615Z,25.03
2017-12-31T15:26:42.664Z,24.77
2017-12-31T15:29:12.514Z,23.20
2017-12-31T15:31:41.900Z,25.40
2017-12-31T15:34:11.102Z,24.90
2017-12-31T15:36:40.830Z,23.53
2017-12-31T15:39:10.107Z,22.57
2017-12-31T15:41:39.595Z,22.30
2017-12-31T15:44:10.878Z,22.33
2017-12-31T15:46:40.957Z,20.03
2017-12-31T15:49:10.100Z,22.07
2017-12-31T15:51:43.649Z,24.37
2017-12-31T15:54:12.627Z,24.47
2017-12-31T15:56:42.044Z,28.33
2017-12-31T16:01:45.315Z,37.40
2017-12-31T16:04:14.635Z,33.60
2017-12-31T16:06:45.888Z,31.57
2017-12-31T16:09:15.058Z,29.77
2017-12-31T16:11:45.308Z,24.83
2017-12-31T16:14:17.767Z,25.47
2017-12-31T16:16:47.166Z,23.73
2017-12-31T16:19:16.179Z,22.20
2017-12-31T16:21:45.977Z,23.47
2017-12-31T16:24:15.047Z,26.20
2017-12-31T16:26:45.581Z,29.92
2017-12-31T16:29:17.101Z,32.67
2017-12-31T16:31:48.713Z,35.33
2017-12-31T16:34:20.156Z,33.80
2017-12-31T16:36:49.959Z,32.43
2017-12-31T16:39:18.965Z,32.03
2017-12-31T16:41:49.902Z,29.50
2017-12-31T16:44:19.117Z,26.30
2017-12-31T16:46:48.211Z,26.33
2017-12-31T16:49:19.694Z,24.70
2017-12-31T16:51:48.816Z,23.07
2017-12-31T16:54:17.929Z,20.33
2017-12-31T16:56:47.168Z,19.17
2017-12-31T16:59:16.984Z,20.30
2017-12-31T17:01:50.166Z,18.53
2017-12-31T17:04:19.142Z,17.40
2017-12-31T17:06:48.281Z,18.43
2017-12-31T17:09:17.334Z,15.63
2017-12-31T17:11:46.217Z,12.77
2017-12-31T17:14:15.246Z,12.93
2017-12-31T17:16:49.132Z,11.40
2017-12-31T17:19:18.966Z,10.73
2017-12-31T17:21:48.067Z,8.40
2017-12-31T17:24:17.014Z,9.60
2017-12-31T17:26:47.141Z,11.77
2017-12-31T17:29:15.986Z,11.63
2017-12-31T17:31:46.385Z,8.60
2017-12-31T17:34:15.333Z,9.33
2017-12-31T17:36:44.685Z,10.40
2017-12-31T17:39:13.574Z,12.50
2017-12-31T17:41:44.905Z,12.53
2017-12-31T17:44:14.128Z,12.93
2017-12-31T17:46:44.062Z,13.87
2017-12-31T17:49:13.100Z,14.73
2017-12-31T17:51:41.950Z,15.43
2017-12-31T17:54:11.809Z,13.77
2017-12-31T17:56:40.798Z,11.13
2017-12-31T17:59:09.790Z,8.97
2017-12-31T18:01:39.943Z,6.90
2017-12-31T18:04:09.012Z,8.20
2017-12-31T18:06:38.038Z,12.73
2017-12-31T18:09:07.066Z,13.50
2017-12-31T18:11:36.406Z,10.83
2017-12-31T18:14:06.316Z,19.83
2017-12-31T18:16:37.113Z,29.27
2017-12-31T18:19:06.275Z,19.80
2017-12-31T18:21:38.785Z,16.30
2017-12-31T18:24:07.860Z,20.23
2017-12-31T18:26:36.921Z,17.27
2017-12-31T18:29:08.160Z,29.37
2017-12-31T18:31:37.566Z,40.17
2017-12-31T18:34:06.555Z,41.63
2017-12-31T18:36:37.510Z,42.15
2017-12-31T18:39:06.700Z,44.08
2017-12-31T18:41:39.226Z,62.20
2017-12-31T18:44:12.120Z,67.78
2017-12-31T18:46:50.109Z,56.08
2017-12-31T18:49:21.934Z,58.55
2017-12-31T18:54:27.213Z,17.37
2017-12-31T18:56:56.280Z,12.20
2017-12-31T18:59:26.128Z,11.30
2017-12-31T19:01:56.128Z,10.47
2017-12-31T19:04:25.177Z,9.48
2017-12-31T19:06:58.393Z,10.07
2017-12-31T19:09:32.020Z,9.10
2017-12-31T19:12:06.905Z,8.20
2017-12-31T19:14:36.546Z,8.77
2017-12-31T19:17:05.475Z,11.70
2017-12-31T19:19:34.561Z,12.60
2017-12-31T19:22:03.524Z,10.67
2017-12-31T19:24:33.084Z,9.53
2017-12-31T19:27:03.942Z,9.40
2017-12-31T19:29:32.862Z,7.87
2017-12-31T19:32:07.731Z,9.00
2017-12-31T19:34:36.578Z,8.20
2017-12-31T19:37:05.591Z,9.00
2017-12-31T19:39:35.459Z,8.40
2017-12-31T19:42:06.103Z,9.10
2017-12-31T19:44:35.866Z,8.93
2017-12-31T19:47:07.391Z,11.17
2017-12-31T19:49:36.305Z,11.17
2017-12-31T19:52:05.210Z,13.47
2017-12-31T19:54:34.264Z,12.53
2017-12-31T19:57:03.402Z,12.67
2017-12-31T19:59:32.353Z,15.07
2017-12-31T20:02:01.352Z,17.33
2017-12-31T20:04:30.513Z,34.07
2017-12-31T20:06:59.557Z,40.30
2017-12-31T20:09:28.641Z,56.10
2017-12-31T20:11:57.777Z,52.47
2017-12-31T20:14:26.703Z,43.42
2017-12-31T20:16:56.657Z,45.05
2017-12-31T20:19:25.742Z,43.10
2017-12-31T20:21:54.826Z,43.10
2017-12-31T20:26:59.785Z,40.33
2017-12-31T20:29:29.577Z,42.35
2017-12-31T20:31:58.787Z,40.50
2017-12-31T20:34:27.895Z,40.50
2017-12-31T20:36:58.055Z,36.15
2017-12-31T20:39:28.840Z,40.00
2017-12-31T20:41:58.869Z,37.92
2017-12-31T20:44:28.711Z,36.78
2017-12-31T20:46:58.576Z,41.20
2017-12-31T20:49:27.594Z,42.85
2017-12-31T20:51:57.608Z,44.60
2017-12-31T20:54:26.535Z,43.90
2017-12-31T20:56:55.399Z,49.08
2017-12-31T20:59:24.322Z,51.05
2017-12-31T21:01:53.424Z,53.42
2017-12-31T21:04:22.477Z,43.15
2017-12-31T21:06:51.548Z,23.70
2017-12-31T21:09:22.407Z,16.10
2017-12-31T21:11:51.852Z,10.13
2017-12-31T21:14:20.947Z,8.00
2017-12-31T21:16:50.692Z,6.62
2017-12-31T21:19:19.545Z,5.80
2017-12-31T21:21:49.631Z,5.43
2017-12-31T21:24:18.633Z,5.45
2017-12-31T21:26:47.618Z,5.30
2017-12-31T21:29:16.650Z,4.00
2017-12-31T21:34:22.589Z,3.92
2017-12-31T21:36:51.503Z,4.23
2017-12-31T21:39:20.527Z,4.00
2017-12-31T21:41:49.817Z,4.50
2017-12-31T21:44:18.869Z,4.43
2017-12-31T21:46:47.858Z,3.70
2017-12-31T21:49:19.666Z,3.70
2017-12-31T21:51:48.613Z,4.07
2017-12-31T21:54:17.426Z,3.80
2017-12-31T21:56:46.398Z,3.43
2017-12-31T21:59:15.257Z,3.40
2017-12-31T22:01:44.279Z,3.90
2017-12-31T22:04:15.168Z,6.60
2017-12-31T22:06:44.112Z,11.73
2017-12-31T22:09:13.108Z,9.67
2017-12-31T22:11:44.357Z,13.10
2017-12-31T22:14:16.009Z,4.10
2017-12-31T22:16:45.118Z,3.90
2017-12-31T22:19:16.678Z,4.30
2017-12-31T22:21:45.547Z,7.10
2017-12-31T22:24:14.347Z,6.40
2017-12-31T22:26:44.008Z,4.80
2017-12-31T22:29:12.878Z,4.53
2017-12-31T22:31:41.711Z,4.80
2017-12-31T22:36:44.432Z,4.40
2017-12-31T22:39:13.606Z,2.83
2017-12-31T22:41:42.619Z,3.83
2017-12-31T22:44:11.710Z,3.70
2017-12-31T22:46:40.762Z,3.87
2017-12-31T22:49:09.705Z,3.67
2017-12-31T22:51:38.796Z,3.70
2017-12-31T22:54:07.676Z,3.60
2017-12-31T22:56:41.383Z,3.20
2017-12-31T22:59:10.289Z,3.67
2017-12-31T23:01:39.171Z,3.03
2017-12-31T23:04:09.903Z,3.33
2017-12-31T23:06:39.004Z,2.90
2017-12-31T23:09:07.990Z,3.37
2017-12-31T23:11:37.008Z,3.03
2017-12-31T23:14:05.989Z,3.10
2017-12-31T23:16:35.112Z,3.20
2017-12-31T23:19:04.407Z,3.53
2017-12-31T23:21:33.297Z,2.77
2017-12-31T23:24:02.907Z,2.67
2017-12-31T23:26:32.003Z,4.20
2017-12-31T23:29:01.677Z,3.83
2017-12-31T23:31:30.877Z,3.73
2017-12-31T23:34:02.431Z,2.80
2017-12-31T23:36:31.742Z,3.10
2017-12-31T23:39:00.760Z,3.10
2017-12-31T23:41:31.701Z,3.03
2017-12-31T23:44:00.661Z,3.20
2017-12-31T23:46:30.516Z,3.20
2017-12-31T23:49:00.595Z,3.87
2017-12-31T23:51:30.541Z,3.47
2017-12-31T23:54:00.318Z,3.63
2017-12-31T23:56:32.831Z,3.57
2017-12-31T23:59:01.899Z,3.03
